Terminal Aerodrome Forecast
Issued by NWS

Home | Current Version | Previous Version | Text Only | Print | Product List | Glossary On
Versions: 1 2 3 4 5 6 7 8 9 10 11 12 13 14
000
FTUS45 KTFX 230500
TAFGTF
TAF
KGTF 230520Z 2306/2406 25011KT P6SM SCT150
     FM231000 26015KT P6SM BKN090
     FM231800 24015G25KT P6SM SCT090
     FM240200 23015KT P6SM VCSH SCT030 BKN060=

USA.gov is the U.S. government's official web portal to all federal, state and local government web resources and services.